Time;durP1;ratioP1;P1;durP2;ratioP2;P2;SDS_P1;SDS_P2;PMS_P1;PMS_P2;Temp;Humidity;BMP_temperature;BMP_pressure;BME280_temperature;BME280_humidity;BME280_pressure;Samples;Min_cycle;Max_cycle;Signal;HPM_P1;HPM_P2
2021/11/21 00:02:12;;;;;;;18.48;16.42;;;10.90;99.90;;;;;;4997894;28;20258;-78
2021/11/21 00:04:38;;;;;;;18.98;16.98;;;10.90;99.90;;;;;;5017114;28;20198;-84
2021/11/21 00:07:04;;;;;;;20.35;17.38;;;10.90;99.90;;;;;;5023891;28;20163;-84
2021/11/21 00:09:30;;;;;;;18.90;15.43;;;10.90;99.90;;;;;;5015262;28;20574;-84
2021/11/21 00:11:57;;;;;;;21.80;17.53;;;10.90;99.90;;;;;;5014976;28;20617;-84
2021/11/21 00:14:22;;;;;;;17.40;15.52;;;10.90;99.90;;;;;;5015054;28;20561;-84
2021/11/21 00:16:49;;;;;;;18.13;16.20;;;10.90;99.90;;;;;;5016810;28;20197;-83
2021/11/21 00:19:15;;;;;;;19.85;17.15;;;10.90;99.90;;;;;;5015133;28;20229;-84
2021/11/21 00:21:40;;;;;;;16.57;14.87;;;10.90;99.90;;;;;;5015729;28;20166;-84
2021/11/21 00:24:06;;;;;;;16.17;13.90;;;10.90;99.90;;;;;;5015113;28;20723;-84
2021/11/21 00:26:32;;;;;;;18.00;16.10;;;10.90;99.90;;;;;;5013501;28;20210;-83
2021/11/21 00:28:58;;;;;;;17.57;15.60;;;10.80;99.90;;;;;;5013114;28;20603;-84
2021/11/21 00:31:24;;;;;;;19.03;17.00;;;10.90;99.90;;;;;;5013470;28;20206;-84
2021/11/21 00:33:50;;;;;;;19.87;15.50;;;10.90;99.90;;;;;;5014556;28;20170;-84
2021/11/21 00:36:15;;;;;;;18.00;15.93;;;10.90;99.90;;;;;;5013263;28;20178;-83
2021/11/21 00:38:42;;;;;;;17.90;15.93;;;10.90;99.90;;;;;;5014395;28;20186;-83
2021/11/21 00:41:07;;;;;;;15.87;13.40;;;10.90;99.90;;;;;;5012995;28;20181;-83
2021/11/21 00:43:34;;;;;;;18.60;14.93;;;10.90;99.90;;;;;;5014471;28;20689;-84
2021/11/21 00:46:00;;;;;;;16.52;14.80;;;10.90;99.90;;;;;;5014163;28;20647;-84
2021/11/21 00:48:26;;;;;;;18.05;14.70;;;10.90;99.90;;;;;;5014400;28;20193;-83
2021/11/21 00:50:56;;;;;;;15.52;13.82;;;11.00;99.90;;;;;;5012849;28;20566;-84
2021/11/21 00:53:21;;;;;;;18.50;15.20;;;11.00;99.90;;;;;;5018240;28;20234;-84
2021/11/21 00:55:53;;;;;;;17.50;14.97;;;11.00;99.90;;;;;;5014109;28;20260;-84
2021/11/21 00:58:19;;;;;;;18.10;15.60;;;10.90;99.90;;;;;;5013787;28;20194;-84
2021/11/21 01:00:49;;;;;;;15.98;14.30;;;10.90;99.90;;;;;;5013732;28;20182;-84
2021/11/21 01:03:18;;;;;;;17.00;14.60;;;11.00;99.90;;;;;;5012816;28;20541;-84
2021/11/21 01:05:45;;;;;;;17.35;14.05;;;10.90;99.90;;;;;;5012392;28;20182;-84
2021/11/21 01:08:12;;;;;;;15.30;13.30;;;10.90;99.90;;;;;;5013290;28;20887;-83
2021/11/21 01:10:39;;;;;;;14.07;12.52;;;10.90;99.90;;;;;;4996215;28;20648;-83
2021/11/21 01:13:05;;;;;;;16.65;13.73;;;10.90;99.90;;;;;;5013019;28;20175;-83
2021/11/21 01:15:33;;;;;;;16.85;15.07;;;11.00;99.90;;;;;;5013606;28;20229;-83
2021/11/21 01:17:59;;;;;;;15.63;13.88;;;11.00;99.90;;;;;;5013263;28;20214;-84
2021/11/21 01:20:28;;;;;;;14.52;12.15;;;11.00;99.90;;;;;;5013827;28;20543;-83
2021/11/21 01:22:54;;;;;;;14.52;12.77;;;11.00;99.90;;;;;;5013217;28;20178;-84
2021/11/21 01:25:21;;;;;;;16.10;13.70;;;11.00;99.90;;;;;;5012304;28;20250;-83
2021/11/21 01:27:47;;;;;;;15.25;13.55;;;11.10;99.90;;;;;;5012996;28;20174;-84
2021/11/21 01:30:21;;;;;;;15.20;13.57;;;11.10;99.90;;;;;;5015071;28;20198;-84
2021/11/21 01:32:47;;;;;;;15.90;12.77;;;11.10;99.90;;;;;;5012025;28;20174;-83
2021/11/21 01:35:14;;;;;;;15.25;13.20;;;11.10;99.90;;;;;;5012187;28;20166;-83
2021/11/21 01:37:40;;;;;;;15.35;13.52;;;11.20;99.90;;;;;;5013019;28;20586;-83
2021/11/21 01:40:09;;;;;;;15.30;13.57;;;11.20;99.90;;;;;;5011768;28;20612;-83
2021/11/21 01:42:35;;;;;;;14.85;12.18;;;11.20;99.90;;;;;;4995556;28;20220;-83
2021/11/21 01:45:01;;;;;;;12.93;11.63;;;11.20;99.90;;;;;;5011814;28;20673;-83
2021/11/21 01:47:27;;;;;;;14.10;12.60;;;11.20;99.90;;;;;;5012507;28;20174;-83
2021/11/21 01:49:52;;;;;;;15.20;13.00;;;11.20;99.90;;;;;;5017296;28;20201;-83
2021/11/21 01:52:18;;;;;;;15.17;13.57;;;11.20;99.90;;;;;;5013195;28;20257;-84
2021/11/21 01:54:44;;;;;;;15.03;13.33;;;11.30;99.90;;;;;;5011548;28;20174;-83
2021/11/21 01:57:12;;;;;;;15.17;13.53;;;11.30;99.90;;;;;;5012879;28;21144;-83
2021/11/21 01:59:37;;;;;;;16.70;13.02;;;11.30;99.90;;;;;;5012914;28;20194;-83
2021/11/21 02:02:04;;;;;;;16.20;13.07;;;11.30;99.90;;;;;;5011280;28;20225;-83
2021/11/21 02:04:29;;;;;;;14.10;12.43;;;11.30;99.90;;;;;;5011592;28;20170;-83
2021/11/21 02:06:55;;;;;;;15.17;13.40;;;11.30;99.90;;;;;;5011690;28;20220;-84
2021/11/21 02:09:21;;;;;;;17.20;12.57;;;11.30;99.90;;;;;;5028104;22;20217;-74
2021/11/21 02:11:47;;;;;;;12.60;11.30;;;11.40;99.90;;;;;;5018530;28;20309;-76
2021/11/21 02:14:13;;;;;;;11.55;10.35;;;11.40;99.90;;;;;;5023328;28;20573;-75
2021/11/21 02:16:39;;;;;;;13.10;11.70;;;11.40;99.90;;;;;;5029904;28;20204;-75
2021/11/21 02:19:05;;;;;;;13.57;12.27;;;11.40;99.90;;;;;;5018200;28;20189;-75
2021/11/21 02:21:31;;;;;;;14.27;11.85;;;11.40;99.90;;;;;;5005751;28;20594;-76
2021/11/21 02:23:57;;;;;;;12.93;11.53;;;11.40;99.90;;;;;;5004268;28;20219;-76
2021/11/21 02:26:22;;;;;;;13.83;11.37;;;11.40;99.90;;;;;;5023252;28;20577;-75
2021/11/21 02:28:53;;;;;;;13.30;11.77;;;11.40;99.90;;;;;;5019234;28;20622;-75
2021/11/21 02:31:22;;;;;;;12.95;11.20;;;11.30;99.90;;;;;;5020181;28;20233;-76
2021/11/21 02:33:52;;;;;;;12.65;9.82;;;11.30;99.90;;;;;;5026661;28;20509;-76
2021/11/21 02:36:19;;;;;;;11.38;10.02;;;11.30;99.90;;;;;;5023150;28;20170;-76
2021/11/21 02:38:45;;;;;;;12.80;11.50;;;11.30;99.90;;;;;;5031672;28;20591;-76
2021/11/21 02:41:11;;;;;;;12.07;10.80;;;11.30;99.90;;;;;;5031887;28;20209;-75
2021/11/21 02:43:39;;;;;;;14.88;11.40;;;11.30;99.90;;;;;;5031991;28;21010;-77
2021/11/21 02:46:05;;;;;;;12.95;11.65;;;11.30;99.90;;;;;;5013382;28;20169;-76
2021/11/21 02:48:33;;;;;;;12.05;10.55;;;11.30;99.90;;;;;;5031640;28;20166;-76
2021/11/21 02:51:03;;;;;;;14.07;11.40;;;11.40;99.90;;;;;;5031312;28;20233;-75
2021/11/21 02:53:30;;;;;;;13.60;11.90;;;11.30;99.90;;;;;;5031436;28;20201;-75
2021/11/21 02:56:00;;;;;;;13.60;12.30;;;11.30;99.90;;;;;;5012966;28;20260;-75
2021/11/21 02:58:27;;;;;;;12.75;10.85;;;11.30;99.90;;;;;;5031381;28;20641;-75
2021/11/21 03:00:55;;;;;;;14.85;11.18;;;11.30;99.90;;;;;;5031240;28;20212;-75
2021/11/21 03:03:21;;;;;;;14.02;11.30;;;11.30;99.90;;;;;;5031433;28;20184;-75
2021/11/21 03:05:47;;;;;;;16.52;12.20;;;11.40;99.90;;;;;;5013522;28;20169;-75
2021/11/21 03:08:12;;;;;;;13.87;12.47;;;11.30;99.90;;;;;;5013427;28;20261;-76
2021/11/21 03:10:39;;;;;;;15.13;13.30;;;11.40;99.90;;;;;;5030691;28;20632;-76
2021/11/21 03:13:06;;;;;;;15.23;13.43;;;11.40;99.90;;;;;;5030687;28;20607;-76
2021/11/21 03:15:33;;;;;;;15.63;13.27;;;11.30;99.90;;;;;;5031191;28;20181;-74
2021/11/21 03:17:59;;;;;;;15.40;12.00;;;11.30;99.90;;;;;;5030680;28;20162;-75
2021/11/21 03:20:28;;;;;;;15.25;12.65;;;11.40;99.90;;;;;;5031286;28;20213;-75
2021/11/21 03:22:55;;;;;;;14.18;12.55;;;11.30;99.90;;;;;;5013271;28;20174;-76
2021/11/21 03:25:22;;;;;;;19.73;13.80;;;11.30;99.90;;;;;;5030893;28;20634;-76
2021/11/21 03:27:48;;;;;;;16.60;14.05;;;11.30;99.90;;;;;;5033256;28;20169;-75
2021/11/21 03:30:17;;;;;;;14.77;13.27;;;11.30;99.90;;;;;;5034871;28;20284;-75
2021/11/21 03:32:43;;;;;;;15.75;14.00;;;11.30;99.90;;;;;;5034580;28;20614;-75
2021/11/21 03:35:10;;;;;;;16.33;14.38;;;11.30;99.90;;;;;;5017349;28;20176;-75
2021/11/21 03:37:36;;;;;;;15.60;13.68;;;11.20;99.90;;;;;;5034233;28;20188;-75
2021/11/21 03:40:05;;;;;;;19.15;15.38;;;11.20;99.90;;;;;;5034568;28;20221;-75
2021/11/21 03:42:31;;;;;;;19.13;15.05;;;11.20;99.90;;;;;;5016983;28;20166;-75
2021/11/21 03:44:57;;;;;;;16.97;14.10;;;11.20;99.90;;;;;;5034557;28;20209;-75
2021/11/21 03:47:23;;;;;;;17.00;14.07;;;11.20;99.90;;;;;;5034310;28;20622;-75
2021/11/21 03:49:49;;;;;;;16.67;13.70;;;11.20;99.90;;;;;;5034352;28;20182;-75
2021/11/21 03:52:15;;;;;;;14.10;12.53;;;11.20;99.90;;;;;;5034632;28;20663;-75
2021/11/21 03:54:41;;;;;;;16.20;13.05;;;11.10;99.90;;;;;;5033788;28;21119;-76
2021/11/21 03:57:08;;;;;;;15.40;13.63;;;11.10;99.90;;;;;;5034309;28;20252;-76
2021/11/21 03:59:34;;;;;;;17.10;13.55;;;11.10;99.90;;;;;;5034291;28;20201;-76
2021/11/21 04:02:01;;;;;;;14.23;12.60;;;11.10;99.90;;;;;;5034608;28;20652;-76
2021/11/21 04:04:28;;;;;;;16.48;13.75;;;11.10;99.90;;;;;;5016453;28;20181;-75
2021/11/21 04:06:55;;;;;;;16.83;13.75;;;11.10;99.90;;;;;;5000010;28;20738;-76
2021/11/21 04:09:21;;;;;;;14.10;12.00;;;11.10;99.90;;;;;;5033825;28;20201;-75
2021/11/21 04:11:48;;;;;;;14.35;12.05;;;11.00;99.90;;;;;;5034204;28;20284;-76
2021/11/21 04:14:14;;;;;;;17.02;12.20;;;11.00;99.90;;;;;;5034104;28;20193;-76
2021/11/21 04:16:40;;;;;;;16.08;12.32;;;11.00;99.90;;;;;;5015719;28;20177;-76
2021/11/21 04:19:06;;;;;;;16.30;12.00;;;11.00;99.90;;;;;;5016204;28;20247;-76
2021/11/21 04:21:32;;;;;;;13.68;11.10;;;11.00;99.90;;;;;;5016085;28;20683;-76
2021/11/21 04:23:58;;;;;;;14.80;12.20;;;11.00;99.90;;;;;;5015937;28;20249;-76
2021/11/21 04:26:24;;;;;;;12.80;11.35;;;11.00;99.90;;;;;;5033416;28;21030;-76
2021/11/21 04:28:51;;;;;;;13.52;12.02;;;11.00;99.90;;;;;;5016341;28;20188;-76
2021/11/21 04:31:17;;;;;;;13.15;11.43;;;11.00;99.90;;;;;;5000049;28;20201;-76
2021/11/21 04:33:43;;;;;;;12.50;10.77;;;10.90;99.90;;;;;;5015884;28;20545;-76
2021/11/21 04:36:09;;;;;;;13.87;11.50;;;10.90;99.90;;;;;;5033476;28;20170;-76
2021/11/21 04:38:35;;;;;;;13.50;11.07;;;10.90;99.90;;;;;;5033247;28;20725;-76
2021/11/21 04:41:01;;;;;;;14.90;11.07;;;11.00;99.90;;;;;;5016175;28;20596;-76
2021/11/21 04:43:27;;;;;;;13.70;10.65;;;10.90;99.90;;;;;;5033311;28;20158;-76
2021/11/21 04:45:54;;;;;;;13.80;11.57;;;11.00;99.90;;;;;;5033335;28;20165;-75
2021/11/21 04:48:21;;;;;;;11.27;9.82;;;11.00;99.90;;;;;;5015748;28;20652;-76
2021/11/21 04:50:47;;;;;;;12.00;10.77;;;11.00;99.90;;;;;;5033405;28;20204;-76
2021/11/21 04:53:13;;;;;;;11.97;10.00;;;11.00;99.90;;;;;;5033150;28;20563;-76
2021/11/21 04:55:39;;;;;;;11.37;10.17;;;11.00;99.90;;;;;;5015695;28;20162;-76
2021/11/21 04:58:05;;;;;;;11.90;10.40;;;11.00;99.90;;;;;;5015313;28;20572;-76
2021/11/21 05:00:31;;;;;;;11.07;9.97;;;11.00;99.90;;;;;;5033150;28;20213;-76
2021/11/21 05:02:57;;;;;;;12.05;10.75;;;11.00;99.90;;;;;;5033182;28;20565;-76
2021/11/21 05:05:24;;;;;;;9.97;8.97;;;11.00;99.90;;;;;;5033057;28;20173;-75
2021/11/21 05:07:50;;;;;;;11.57;10.38;;;11.00;99.90;;;;;;5014800;28;20730;-76
2021/11/21 05:10:17;;;;;;;11.25;10.05;;;11.00;99.90;;;;;;5032967;28;20201;-75
2021/11/21 05:12:43;;;;;;;12.82;9.80;;;11.00;99.90;;;;;;5015950;28;20205;-75
2021/11/21 05:15:12;;;;;;;10.88;9.35;;;11.00;99.90;;;;;;5032745;28;20205;-75
2021/11/21 05:17:38;;;;;;;11.20;10.10;;;11.00;99.90;;;;;;5032532;28;20540;-75
2021/11/21 05:20:06;;;;;;;12.73;10.57;;;11.00;99.90;;;;;;5033002;28;20188;-74
2021/11/21 05:22:32;;;;;;;12.57;9.90;;;11.00;99.90;;;;;;5032618;28;20564;-74
2021/11/21 05:24:58;;;;;;;10.37;8.90;;;11.00;99.90;;;;;;5032922;28;20172;-74
2021/11/21 05:27:24;;;;;;;10.35;9.30;;;11.00;99.90;;;;;;5032024;28;20678;-75
2021/11/21 05:29:53;;;;;;;12.40;9.25;;;11.00;99.90;;;;;;5015039;28;20267;-75
2021/11/21 05:32:20;;;;;;;9.98;8.82;;;11.00;99.90;;;;;;5032441;28;20170;-75
2021/11/21 05:34:46;;;;;;;12.82;9.73;;;11.00;99.90;;;;;;5032638;28;20178;-75
2021/11/21 05:37:13;;;;;;;12.18;8.85;;;11.00;99.90;;;;;;5031800;28;20649;-75
2021/11/21 05:39:39;;;;;;;11.32;8.85;;;11.00;99.90;;;;;;5015035;28;20251;-75
2021/11/21 05:42:06;;;;;;;12.85;8.90;;;11.00;99.90;;;;;;5032412;28;20165;-75
2021/11/21 05:44:32;;;;;;;9.93;7.90;;;11.00;99.90;;;;;;5032502;28;20257;-76
2021/11/21 05:46:58;;;;;;;10.60;8.37;;;11.00;99.90;;;;;;5032170;28;20591;-74
2021/11/21 05:49:23;;;;;;;9.53;8.53;;;11.00;99.90;;;;;;5014231;28;20703;-75
2021/11/21 05:51:49;;;;;;;12.07;8.13;;;11.00;99.90;;;;;;5032190;28;20650;-75
2021/11/21 05:54:15;;;;;;;11.13;8.83;;;11.00;99.90;;;;;;5014328;28;20683;-75
2021/11/21 05:56:41;;;;;;;8.30;7.40;;;11.00;99.90;;;;;;5031961;28;20561;-74
2021/11/21 05:59:07;;;;;;;10.17;9.03;;;11.00;99.90;;;;;;5032095;28;20280;-75
2021/11/21 06:01:33;;;;;;;10.10;8.30;;;11.00;99.90;;;;;;5032228;28;21146;-75
2021/11/21 06:03:59;;;;;;;9.18;7.32;;;11.00;99.90;;;;;;5014136;28;20918;-75
2021/11/21 06:06:25;;;;;;;9.33;8.30;;;11.00;99.90;;;;;;5031436;28;20180;-75
2021/11/21 06:08:51;;;;;;;8.77;7.37;;;11.00;99.90;;;;;;5008990;28;20220;-75
2021/11/21 06:11:17;;;;;;;11.10;8.10;;;11.00;99.90;;;;;;5019933;28;20631;-75
2021/11/21 06:13:43;;;;;;;10.57;8.67;;;11.00;99.90;;;;;;4999650;28;20581;-75
2021/11/21 06:16:09;;;;;;;7.97;7.15;;;11.00;99.90;;;;;;5011528;28;20557;-75
2021/11/21 06:18:35;;;;;;;8.77;7.95;;;11.00;99.90;;;;;;5012652;28;20188;-75
2021/11/21 06:21:01;;;;;;;8.13;7.17;;;11.00;99.90;;;;;;5019680;28;20189;-76
2021/11/21 06:23:32;;;;;;;11.63;7.90;;;11.00;99.90;;;;;;5005549;28;20592;-76
2021/11/21 06:25:58;;;;;;;8.05;6.47;;;11.00;99.90;;;;;;5006846;28;20178;-76
2021/11/21 06:28:25;;;;;;;8.40;7.00;;;11.00;99.90;;;;;;5011913;28;20236;-76
2021/11/21 06:30:52;;;;;;;8.05;6.70;;;11.00;99.90;;;;;;4988894;28;21226;-76
2021/11/21 06:33:18;;;;;;;7.35;6.63;;;11.00;99.90;;;;;;5024219;28;20516;-76
2021/11/21 06:35:45;;;;;;;9.07;7.05;;;11.00;99.90;;;;;;5024402;28;20205;-76
2021/11/21 06:38:11;;;;;;;7.60;6.88;;;11.00;99.90;;;;;;5023025;28;20245;-77
2021/11/21 06:40:37;;;;;;;7.15;6.45;;;11.00;99.90;;;;;;5023795;28;20202;-76
2021/11/21 06:43:03;;;;;;;7.88;7.07;;;11.00;99.90;;;;;;5000772;28;20205;-76
2021/11/21 06:45:29;;;;;;;8.90;7.70;;;11.00;99.90;;;;;;5023237;28;20204;-75
2021/11/21 06:47:55;;;;;;;7.72;7.03;;;11.00;99.90;;;;;;5024362;28;20178;-76
2021/11/21 06:50:21;;;;;;;7.63;6.83;;;11.00;99.90;;;;;;5018793;28;20730;-76
2021/11/21 06:52:48;;;;;;;7.97;7.15;;;11.00;99.90;;;;;;5020770;28;20189;-76
2021/11/21 06:55:16;;;;;;;7.73;6.93;;;11.00;99.90;;;;;;5019659;28;20527;-75
2021/11/21 06:57:42;;;;;;;6.95;6.10;;;11.00;99.90;;;;;;5011238;28;20173;-75
2021/11/21 07:00:15;;;;;;;7.70;6.90;;;11.00;99.90;;;;;;5031277;28;20658;-75
2021/11/21 07:02:41;;;;;;;11.70;7.95;;;11.00;99.90;;;;;;5033213;28;20560;-76
2021/11/21 07:05:07;;;;;;;7.93;6.95;;;11.10;99.90;;;;;;5035008;28;20257;-75
2021/11/21 07:07:34;;;;;;;7.43;6.72;;;11.10;99.90;;;;;;5034559;28;20173;-75
2021/11/21 07:10:00;;;;;;;7.70;6.43;;;11.10;99.90;;;;;;5034991;28;20845;-75
2021/11/21 07:12:26;;;;;;;8.20;7.40;;;11.10;99.90;;;;;;5035039;28;20611;-76
2021/11/21 07:14:52;;;;;;;9.80;8.10;;;11.10;99.90;;;;;;5034715;28;20252;-76
2021/11/21 07:17:18;;;;;;;8.50;7.70;;;11.20;99.90;;;;;;5034552;28;20170;-76
2021/11/21 07:19:44;;;;;;;8.50;7.60;;;11.20;99.90;;;;;;5034915;28;20201;-76
2021/11/21 07:22:09;;;;;;;8.00;7.20;;;11.20;99.90;;;;;;5035046;28;20170;-77
2021/11/21 07:24:35;;;;;;;9.60;7.60;;;11.20;99.90;;;;;;5034598;28;20568;-76
2021/11/21 07:27:01;;;;;;;7.93;7.13;;;11.20;99.90;;;;;;5033410;28;20178;-76
2021/11/21 07:29:30;;;;;;;9.70;8.63;;;11.20;99.90;;;;;;4999249;28;20194;-74
2021/11/21 07:31:58;;;;;;;9.77;8.32;;;11.20;99.90;;;;;;5016558;28;20616;-75
2021/11/21 07:34:23;;;;;;;10.20;7.90;;;11.20;99.90;;;;;;5016576;28;20192;-75
2021/11/21 07:36:49;;;;;;;9.47;8.50;;;11.20;99.90;;;;;;5034342;28;20249;-75
2021/11/21 07:39:15;;;;;;;11.10;9.60;;;11.20;99.90;;;;;;5034575;28;20182;-75
2021/11/21 07:41:41;;;;;;;9.53;8.17;;;11.20;99.90;;;;;;5034739;28;20196;-75
2021/11/21 07:44:12;;;;;;;10.32;9.18;;;11.20;99.90;;;;;;5016934;28;20181;-75
2021/11/21 07:46:38;;;;;;;9.98;8.98;;;11.20;99.90;;;;;;5033941;28;20176;-75
2021/11/21 07:49:05;;;;;;;10.73;9.65;;;11.20;99.90;;;;;;5035571;28;20201;-76
2021/11/21 07:51:31;;;;;;;10.63;9.50;;;11.20;99.90;;;;;;5037505;28;20229;-76
2021/11/21 07:53:57;;;;;;;10.25;9.25;;;11.20;99.90;;;;;;5016721;28;20174;-75
2021/11/21 07:56:23;;;;;;;9.30;8.25;;;11.30;99.90;;;;;;5016197;28;20166;-75
2021/11/21 07:58:49;;;;;;;12.25;10.95;;;11.30;99.90;;;;;;5016727;28;20543;-75
2021/11/21 08:01:16;;;;;;;13.00;11.43;;;11.30;99.90;;;;;;5034175;28;20170;-75
2021/11/21 08:03:42;;;;;;;12.45;10.32;;;11.30;99.90;;;;;;5016370;28;20568;-76
2021/11/21 08:06:08;;;;;;;12.45;10.07;;;11.40;99.90;;;;;;5033624;28;20173;-76
2021/11/21 08:08:35;;;;;;;12.37;10.57;;;11.40;99.90;;;;;;5034297;28;20166;-76
2021/11/21 08:11:00;;;;;;;13.45;10.25;;;11.40;99.90;;;;;;5034424;28;20999;-73
2021/11/21 08:13:26;;;;;;;11.00;9.77;;;11.50;99.90;;;;;;5033754;28;20169;-73
2021/11/21 08:15:53;;;;;;;11.23;10.00;;;11.50;99.90;;;;;;5033900;28;20933;-73
2021/11/21 08:18:23;;;;;;;10.15;9.15;;;11.60;99.90;;;;;;5017010;28;20220;-73
2021/11/21 08:20:58;;;;;;;10.70;9.20;;;11.60;99.90;;;;;;5034069;28;20236;-74
2021/11/21 08:23:24;;;;;;;11.98;10.77;;;11.60;99.90;;;;;;5034195;28;20568;-73
2021/11/21 08:25:51;;;;;;;13.63;10.98;;;11.60;99.90;;;;;;5000132;28;20200;-73
2021/11/21 08:28:17;;;;;;;11.38;9.68;;;11.60;99.90;;;;;;5033245;28;20178;-74
2021/11/21 08:30:43;;;;;;;11.07;9.57;;;11.60;99.90;;;;;;5016354;28;20662;-73
2021/11/21 08:33:10;;;;;;;12.63;10.53;;;11.60;99.90;;;;;;5033616;28;20568;-73
2021/11/21 08:35:37;;;;;;;11.70;10.50;;;11.60;99.90;;;;;;5034007;28;20568;-71
2021/11/21 08:38:04;;;;;;;12.05;9.90;;;11.60;99.90;;;;;;5033452;28;20182;-72
2021/11/21 08:40:31;;;;;;;11.77;10.20;;;11.50;99.90;;;;;;5033916;28;20194;-73
2021/11/21 08:42:57;;;;;;;12.23;9.90;;;11.50;99.90;;;;;;5033352;28;20535;-72
2021/11/21 08:45:23;;;;;;;12.90;11.55;;;11.50;99.90;;;;;;5033815;28;20178;-73
2021/11/21 08:47:49;;;;;;;13.67;12.23;;;11.50;99.90;;;;;;5033116;28;20162;-73
2021/11/21 08:50:16;;;;;;;12.45;11.15;;;11.50;99.90;;;;;;5033522;28;20620;-73
2021/11/21 08:52:42;;;;;;;11.27;9.65;;;11.50;99.90;;;;;;5015445;28;20220;-73
2021/11/21 08:55:09;;;;;;;11.38;10.18;;;11.50;99.90;;;;;;5033689;28;20265;-72
2021/11/21 08:57:35;;;;;;;11.73;9.68;;;11.50;99.90;;;;;;5032831;28;20225;-72
2021/11/21 09:00:05;;;;;;;12.65;11.35;;;11.50;99.90;;;;;;5015732;28;20185;-73
2021/11/21 09:02:35;;;;;;;10.63;9.52;;;11.50;99.90;;;;;;5033081;28;20165;-72
2021/11/21 09:05:06;;;;;;;10.57;9.18;;;11.50;99.90;;;;;;5015316;28;20166;-74
2021/11/21 09:07:35;;;;;;;11.55;9.55;;;11.50;99.90;;;;;;5032912;28;20546;-72
2021/11/21 09:10:02;;;;;;;11.85;9.27;;;11.50;99.90;;;;;;5032630;28;20280;-72
2021/11/21 09:12:28;;;;;;;14.38;10.55;;;11.50;99.90;;;;;;5033018;28;20243;-73
2021/11/21 09:14:54;;;;;;;10.17;8.90;;;11.50;99.90;;;;;;5032999;28;20170;-73
2021/11/21 09:17:50;;;;;;;10.27;8.37;;;11.50;99.90;;;;;;5033793;28;20252;-73
2021/11/21 09:20:16;;;;;;;8.23;7.43;;;11.50;99.90;;;;;;5024854;28;20205;-73
2021/11/21 09:22:42;;;;;;;9.98;8.32;;;11.50;99.90;;;;;;5015284;28;20177;-73
2021/11/21 09:25:09;;;;;;;8.55;7.50;;;11.50;99.90;;;;;;5031870;28;20224;-73
2021/11/21 09:27:36;;;;;;;8.45;7.55;;;11.50;99.90;;;;;;4999378;28;20177;-72
2021/11/21 09:30:07;;;;;;;9.10;8.15;;;11.40;99.90;;;;;;5014771;28;20194;-72
2021/11/21 09:32:34;;;;;;;8.23;6.68;;;11.40;99.90;;;;;;5015137;28;20176;-73
2021/11/21 09:35:02;;;;;;;7.93;7.13;;;11.40;99.90;;;;;;5032793;28;20177;-74
2021/11/21 09:37:27;;;;;;;5.95;5.35;;;11.40;99.90;;;;;;5032652;28;20252;-74
2021/11/21 09:39:53;;;;;;;7.67;6.33;;;11.30;99.90;;;;;;5032497;28;20564;-73
2021/11/21 09:42:19;;;;;;;8.13;7.00;;;11.30;99.90;;;;;;5032834;28;20172;-73
2021/11/21 09:44:45;;;;;;;8.80;7.90;;;11.20;99.90;;;;;;5032179;28;20565;-74
2021/11/21 09:47:13;;;;;;;7.47;6.40;;;11.20;99.90;;;;;;5032390;28;20939;-74
2021/11/21 09:49:40;;;;;;;8.35;7.55;;;11.20;99.90;;;;;;5032267;28;20657;-73
2021/11/21 09:52:07;;;;;;;8.55;6.75;;;11.20;99.90;;;;;;5014876;28;20228;-73
2021/11/21 09:54:33;;;;;;;7.25;6.30;;;11.20;99.90;;;;;;5032241;28;20641;-72
2021/11/21 09:56:59;;;;;;;7.37;6.67;;;11.10;99.90;;;;;;5031969;28;20216;-72
2021/11/21 09:59:47;;;;;;;7.45;6.65;;;11.10;99.90;;;;;;5032078;28;20592;-72
2021/11/21 10:02:32;;;;;;;9.18;7.18;;;11.10;99.90;;;;;;5032083;28;20174;-72
2021/11/21 10:05:21;;;;;;;9.15;7.68;;;11.10;99.90;;;;;;5014670;28;20538;-73
2021/11/21 10:07:48;;;;;;;9.20;7.00;;;11.10;99.90;;;;;;5032069;28;20595;-73
2021/11/21 10:10:19;;;;;;;8.43;7.15;;;11.10;99.90;;;;;;5031836;28;20233;-73
2021/11/21 10:12:45;;;;;;;8.75;7.13;;;11.10;99.90;;;;;;5032046;28;20208;-74
2021/11/21 10:15:14;;;;;;;9.02;7.45;;;11.20;99.90;;;;;;5032051;28;20169;-74
2021/11/21 10:17:47;;;;;;;8.02;7.00;;;11.20;99.90;;;;;;5031747;28;20247;-73
2021/11/21 10:20:22;;;;;;;8.43;7.47;;;11.20;99.90;;;;;;5031920;28;20670;-74
2021/11/21 10:23:02;;;;;;;11.20;9.00;;;11.20;99.90;;;;;;5031684;28;20181;-73
2021/11/21 10:25:40;;;;;;;12.73;9.43;;;11.30;99.90;;;;;;5032007;28;20220;-73
2021/11/21 10:28:16;;;;;;;9.70;8.70;;;11.30;99.90;;;;;;5031558;28;20158;-73
2021/11/21 10:31:08;;;;;;;10.65;9.05;;;11.30;99.90;;;;;;5031975;28;20746;-74
2021/11/21 10:33:43;;;;;;;9.73;8.30;;;11.40;99.90;;;;;;5031717;28;20193;-73
2021/11/21 10:36:11;;;;;;;11.55;10.02;;;11.40;99.90;;;;;;5031455;28;20200;-73
2021/11/21 10:38:48;;;;;;;11.52;8.32;;;11.50;99.90;;;;;;5031419;28;20169;-74
2021/11/21 10:41:26;;;;;;;9.98;8.43;;;11.50;99.90;;;;;;5014037;28;20184;-73
2021/11/21 10:44:05;;;;;;;8.20;7.40;;;11.50;99.90;;;;;;5031470;28;20535;-73
2021/11/21 10:46:36;;;;;;;10.10;8.25;;;11.50;99.90;;;;;;5009646;28;20181;-73
2021/11/21 10:49:18;;;;;;;9.30;7.50;;;11.50;99.90;;;;;;5006919;28;20231;-74
2021/11/21 10:51:46;;;;;;;9.82;8.15;;;11.60;99.90;;;;;;5023958;28;20209;-73
2021/11/21 10:54:45;;;;;;;8.95;7.05;;;11.60;99.90;;;;;;5007447;28;20261;-73
2021/11/21 10:57:15;;;;;;;7.95;6.70;;;11.60;99.90;;;;;;4975707;28;20186;-73
2021/11/21 10:59:48;;;;;;;8.05;7.25;;;11.70;99.90;;;;;;4992148;28;20190;-74
2021/11/21 11:02:18;;;;;;;8.73;7.45;;;11.70;99.90;;;;;;4992190;28;20163;-73
2021/11/21 11:05:11;;;;;;;9.60;7.30;;;11.70;99.90;;;;;;4974467;28;20580;-72
2021/11/21 11:07:43;;;;;;;8.48;7.13;;;11.70;99.90;;;;;;4991925;28;20225;-74
2021/11/21 11:10:17;;;;;;;8.15;7.30;;;11.70;99.90;;;;;;4974295;28;20705;-72
2021/11/21 11:12:59;;;;;;;7.63;6.63;;;11.70;99.90;;;;;;4991822;28;20166;-72
2021/11/21 11:15:27;;;;;;;9.13;7.43;;;11.80;99.90;;;;;;4991877;28;20213;-73
2021/11/21 11:17:53;;;;;;;9.57;8.60;;;11.80;99.90;;;;;;4974440;28;20207;-72
2021/11/21 11:20:21;;;;;;;8.10;7.20;;;11.80;99.90;;;;;;4991674;28;20198;-73
2021/11/21 11:22:48;;;;;;;10.02;7.60;;;11.80;99.90;;;;;;5021539;28;20182;-73
2021/11/21 11:25:31;;;;;;;7.57;6.80;;;11.80;99.90;;;;;;5024728;28;20540;-73
2021/11/21 11:28:27;;;;;;;9.43;8.45;;;11.80;99.90;;;;;;4997623;28;20170;-74
2021/11/21 11:30:54;;;;;;;8.55;6.80;;;11.80;99.90;;;;;;4991500;28;20582;-73
2021/11/21 11:33:23;;;;;;;8.82;7.35;;;11.80;99.90;;;;;;4991702;28;20262;-72
2021/11/21 11:35:55;;;;;;;8.70;7.80;;;11.90;99.90;;;;;;4991654;28;20167;-72
2021/11/21 11:38:30;;;;;;;8.63;7.47;;;11.90;99.90;;;;;;4991663;28;20660;-72
2021/11/21 11:41:03;;;;;;;9.90;8.07;;;12.00;99.90;;;;;;4991476;28;20534;-73
2021/11/21 11:43:44;;;;;;;8.70;7.40;;;12.00;99.90;;;;;;4991602;28;20199;-72
2021/11/21 11:46:19;;;;;;;7.80;6.32;;;12.00;99.90;;;;;;4991000;28;20595;-73
2021/11/21 11:48:44;;;;;;;8.18;6.80;;;12.00;99.90;;;;;;4976605;28;20700;-74
2021/11/21 11:51:31;;;;;;;8.10;6.87;;;12.10;99.90;;;;;;4994969;28;20206;-73
2021/11/21 11:54:02;;;;;;;9.07;7.70;;;12.10;99.90;;;;;;4974258;28;20218;-73
2021/11/21 11:56:47;;;;;;;9.23;8.32;;;12.10;99.90;;;;;;4994855;28;20250;-74
2021/11/21 11:59:30;;;;;;;9.50;8.57;;;12.10;99.90;;;;;;4995130;28;20662;-74
2021/11/21 12:02:10;;;;;;;9.50;8.20;;;12.10;99.90;;;;;;4977582;28;20223;-73
2021/11/21 12:04:36;;;;;;;10.43;9.27;;;12.10;99.90;;;;;;4995126;28;20666;-72
2021/11/21 12:07:19;;;;;;;9.50;8.50;;;12.10;99.90;;;;;;4994442;28;20171;-72
2021/11/21 12:10:11;;;;;;;11.63;8.20;;;12.10;99.90;;;;;;4994941;28;20663;-73
2021/11/21 12:13:05;;;;;;;9.35;7.00;;;12.10;99.90;;;;;;4993434;28;20237;-73
2021/11/21 12:15:44;;;;;;;8.77;7.95;;;12.10;99.90;;;;;;4994760;28;20178;-73
2021/11/21 12:18:10;;;;;;;9.98;9.02;;;12.10;99.90;;;;;;4994685;28;20181;-73
2021/11/21 12:20:58;;;;;;;9.70;8.75;;;12.10;99.90;;;;;;4994779;28;20198;-72
2021/11/21 12:23:43;;;;;;;8.63;7.65;;;12.10;99.90;;;;;;4977458;28;20198;-73
2021/11/21 12:26:32;;;;;;;10.48;8.43;;;12.10;99.90;;;;;;4994343;28;20194;-73
2021/11/21 12:29:26;;;;;;;9.50;8.57;;;12.10;99.90;;;;;;4994648;28;20175;-73
2021/11/21 12:31:53;;;;;;;9.63;6.75;;;12.10;99.90;;;;;;4994495;28;20671;-72
2021/11/21 12:34:48;;;;;;;9.40;7.80;;;12.10;99.90;;;;;;4994450;28;20267;-72
2021/11/21 12:37:33;;;;;;;7.90;7.00;;;12.10;99.90;;;;;;4974613;28;20186;-72
2021/11/21 12:40:10;;;;;;;8.90;7.60;;;12.10;99.90;;;;;;4994606;28;20199;-73
2021/11/21 12:42:38;;;;;;;7.90;6.55;;;12.10;99.90;;;;;;4995814;28;20529;-73
2021/11/21 12:45:15;;;;;;;8.80;6.60;;;12.10;99.90;;;;;;4994423;28;20631;-73